Date,TemperatureHighF,TemperatureAvgF,TemperatureLowF,DewpointHighF,DewpointAvgF,DewpointLowF,HumidityHigh,HumidityAvg,HumidityLow,PressureMaxIn,PressureMinIn,WindSpeedMaxMPH,WindSpeedAvgMPH,GustSpeedMaxMPH,PrecipitationSumIn
2013-1-6,48.7,42.2,37.8,0.9,-4.3,-13.7,20,14,7,22.53,22.46,9,5,21,0.00
2013-1-7,46.3,37.5,24.7,1.4,-6.8,-18.6,35,16,6,22.50,22.36,12,5,25,0.00
2013-1-8,35.1,32.2,29.3,16.0,11.9,-7.3,50,43,16,22.68,22.34,18,9,26,0.00
2013-1-9,53.8,38.1,25.9,13.4,9.2,3.1,47,32,13,22.73,22.53,10,2,21,0.00
2013-1-10,46.5,29.6,18.1,14.4,4.9,-4.3,59,39,12,22.53,22.09,8,2,21,0.00
2013-1-11,34.3,18.6,8.5,20.5,3.4,-10.2,83,52,30,22.20,21.91,18,7,31,0.00
2013-1-12,15.6,6.0,-5.5,-2.8,-10.8,-14.0,81,49,27,22.31,22.19,9,4,21,0.00
2013-1-13,8.4,-2.1,-11.2,-1.8,-8.3,-15.7,83,75,55,22.40,22.30,5,1,21,0.00
2013-1-14,14.7,-0.8,-14.1,-3.8,-12.9,-19.0,83,60,29,22.45,22.34,7,2,21,0.00
2013-1-15,31.4,21.1,5.0,15.0,1.4,-17.8,51,42,30,22.57,22.40,11,4,21,0.00
2013-1-16,46.1,31.7,15.6,17.5,14.0,10.5,81,50,31,22.78,22.57,11,3,21,0.00
2013-1-17,48.7,27.5,8.1,16.5,8.1,0.8,89,52,18,22.85,22.69,12,2,27,0.00
2013-1-18,42.2,37.0,34.1,4.7,2.3,0.0,26,23,19,22.70,22.58,13,8,28,0.00
2013-1-19,47.6,38.7,32.5,2.4,-1.7,-8.4,26,18,10,22.69,22.56,14,8,22,0.00
2013-1-20,42.4,34.7,21.9,8.7,0.8,-5.5,54,24,16,22.68,22.60,13,5,21,0.00
2013-1-21,42.1,35.5,28.1,8.0,3.2,-7.1,35,26,14,22.65,22.57,14,8,26,0.00
2013-1-22,49.3,42.5,36.5,-5.0,-13.6,-23.0,16,9,5,22.68,22.55,17,9,29,0.00
2013-1-23,53.8,47.1,43.1,-1.6,-11.6,-31.9,14,8,3,22.69,22.65,17,10,30,0.00
2013-1-24,48.8,43.2,38.9,25.6,9.1,-7.5,58,29,11,22.64,22.53,15,8,28,0.00
2013-1-25,47.1,41.2,37.5,26.1,23.7,19.3,56,50,41,22.65,22.56,15,6,23,0.00
2013-1-26,50.3,40.3,29.6,29.7,24.0,20.0,93,55,30,22.56,22.30,12,3,21,0.00
2013-1-27,45.5,37.2,25.4,28.4,22.4,14.0,94,58,33,22.33,22.26,13,5,22,0.00
2013-1-28,41.5,31.3,19.3,26.4,16.2,10.9,86,55,35,22.29,22.15,9,3,21,0.00
2013-1-29,22.4,15.2,3.6,15.2,-2.3,-7.4,84,46,29,22.35,22.17,11,4,21,0.00
2013-1-30,27.4,20.2,6.7,13.2,4.9,-6.9,63,51,36,22.36,22.25,18,9,39,0.00
2013-1-31,32.9,29.0,25.5,15.7,12.8,9.4,66,51,38,22.59,22.35,19,11,42,0.00
2013-2-1,33.7,30.5,28.5,18.1,13.2,9.7,57,48,38,22.61,22.51,14,9,31,0.00
2013-2-2,45.4,35.4,28.8,10.8,6.7,2.9,46,31,19,22.74,22.59,14,6,27,0.00
2013-2-3,46.6,38.5,31.4,6.2,-4.7,-22.6,29,17,5,22.69,22.45,11,6,21,0.00
2013-2-4,42.0,34.1,29.8,11.1,4.9,-0.7,40,29,21,22.51,22.38,15,8,31,0.00
2013-2-5,48.1,39.5,32.7,19.6,15.3,9.6,42,37,30,22.54,22.42,13,7,23,0.00
2013-2-6,41.9,36.7,24.1,27.8,18.8,11.5,85,49,38,22.56,22.39,12,5,21,0.00
2013-2-7,42.4,25.2,10.2,12.8,5.6,-11.9,87,50,10,22.60,22.55,6,2,21,0.00
2013-2-9,32.3,24.8,16.3,22.3,15.0,6.2,91,68,44,22.19,22.06,7,2,21,0.00
2013-2-10,25.8,19.3,10.7,14.3,6.3,1.3,81,58,37,22.42,22.09,7,2,21,0.00
2013-2-11,21.6,13.3,2.7,14.1,7.2,-1.0,88,77,48,22.44,22.38,5,1,21,0.00
2013-2-12,36.3,23.3,14.4,6.1,-0.9,-14.7,51,35,20,22.48,22.43,11,5,22,0.00
2013-2-13,33.8,27.1,21.3,12.3,7.9,4.2,51,44,38,22.49,22.42,15,9,26,0.00
2013-2-14,34.7,23.1,10.6,17.9,10.0,6.2,82,58,34,22.62,22.47,11,4,21,0.00
2013-2-15,29.8,21.5,7.3,9.5,4.7,-0.2,88,52,28,22.67,22.60,13,5,24,0.00
2013-2-16,44.3,34.2,26.6,13.1,8.1,1.4,50,34,21,22.66,22.47,16,10,29,0.00
2013-2-17,45.9,35.3,22.5,14.9,1.8,-5.6,60,25,14,22.49,22.21,17,8,26,0.00
2013-2-18,27.7,21.9,11.4,5.6,-0.4,-5.5,58,38,26,22.48,22.28,12,5,22,0.00
2013-2-19,42.9,24.0,6.4,2.9,-8.6,-24.8,65,30,6,22.48,22.30,7,2,21,0.00
2013-2-20,35.5,20.9,10.5,16.5,7.6,0.0,88,59,30,22.29,22.14,7,2,21,0.00
2013-2-21,25.4,15.9,8.2,17.9,11.7,5.1,90,84,70,22.31,22.16,5,1,21,0.01
2013-2-22,27.7,21.5,8.6,16.1,5.1,-1.4,88,49,37,22.37,22.30,13,6,28,0.01
2013-2-23,36.5,25.4,17.8,19.2,9.1,-0.5,88,51,37,22.31,22.15,17,6,33,0.00
2013-2-24,23.2,17.3,1.7,17.3,12.3,-1.8,90,81,63,22.50,22.23,3,0,21,0.00
2013-2-25,37.2,20.6,-4.1,14.3,2.3,-8.0,90,50,22,22.48,22.30,7,3,21,0.02
2013-2-26,30.1,23.7,17.5,18.2,9.3,2.0,82,55,37,22.53,22.27,7,3,21,0.00
2013-2-27,27.1,20.1,10.9,4.2,-2.6,-9.8,57,37,22,22.61,22.54,11,5,21,0.00
2013-2-28,32.7,24.7,18.6,8.8,2.5,-3.5,50,38,27,22.65,22.58,12,5,21,0.00
2013-3-1,41.5,33.6,25.3,18.9,11.2,-1.1,51,39,28,22.76,22.66,12,6,25,0.00
2013-3-2,46.8,39.7,33.4,21.7,19.0,15.2,56,44,31,22.77,22.57,13,7,24,0.00
2013-3-3,49.1,41.1,31.7,28.8,19.8,14.6,89,44,27,22.57,22.27,22,7,42,0.00
2013-3-4,36.8,25.6,17.1,28.9,12.8,-3.0,92,60,37,22.59,22.27,10,4,21,0.03
2013-3-5,47.0,32.2,16.0,1.0,-6.2,-18.8,50,21,8,22.62,22.58,11,5,21,0.00
2013-3-6,54.7,44.2,22.5,12.2,6.6,-8.7,35,22,12,22.59,22.40,12,5,23,0.00
2013-3-7,56.0,43.2,24.7,18.8,12.7,4.5,66,32,13,22.53,22.40,9,3,25,0.00
2013-3-8,52.0,31.7,20.9,25.8,17.3,10.5,89,59,23,22.50,22.26,5,1,21,0.00
2013-3-9,30.5,25.6,17.9,26.8,19.3,4.7,93,78,49,22.51,22.21,8,2,21,0.03
2013-3-10,42.7,29.6,13.7,16.9,7.9,-1.0,70,41,26,22.56,22.49,10,4,21,0.05
2013-3-11,40.7,31.9,22.8,24.7,16.7,10.7,91,55,34,22.56,22.41,15,8,29,0.00
2013-3-12,43.8,30.5,20.0,26.5,20.0,16.7,92,68,38,22.68,22.56,11,4,21,0.10
2013-3-13,54.1,43.8,37.8,22.7,19.8,15.5,49,39,23,22.75,22.65,18,9,28,0.00
2013-3-14,57.9,49.0,42.4,20.7,16.7,9.6,38,28,18,22.79,22.69,12,6,30,0.00
2013-3-15,61.6,53.0,46.1,24.8,18.6,14.5,40,26,19,22.68,22.47,14,7,28,0.00
2013-3-16,49.2,40.2,30.4,29.1,23.0,14.9,75,51,31,22.52,22.38,11,4,21,0.00
2013-3-17,41.6,34.3,22.4,27.2,18.5,-2.4,88,53,32,22.38,22.14,12,5,21,0.00
2013-3-18,32.8,26.4,19.2,19.8,5.5,-7.4,72,41,28,22.43,22.32,12,7,24,0.00
2013-3-19,40.3,31.2,19.7,8.9,-7.5,-27.7,61,21,5,22.70,22.42,14,8,28,0.00
2013-3-20,50.4,33.8,9.4,23.8,9.2,-10.8,80,41,14,22.70,22.33,17,5,27,0.00
2013-3-21,45.2,35.5,26.3,28.8,15.1,-2.5,80,45,23,22.33,22.17,15,7,25,0.00
2013-3-22,36.7,25.3,16.9,20.4,8.8,-0.2,89,55,22,22.36,22.22,11,3,21,0.00
2013-3-23,19.2,12.6,-1.5,13.9,7.4,-5.4,88,80,64,22.52,22.33,3,0,21,0.00
2013-3-24,22.9,8.8,-7.2,6.4,-1.6,-11.3,86,65,34,22.54,22.44,5,1,21,0.00
2013-3-25,32.0,16.1,-0.9,11.1,2.3,-5.8,84,58,25,22.59,22.52,5,2,21,0.06
2013-3-26,46.1,32.7,5.9,26.2,15.1,1.3,83,49,35,22.58,22.42,12,4,22,0.10
2013-3-27,48.5,36.9,26.0,27.0,22.8,17.5,90,60,30,22.60,22.48,10,3,21,0.00
2013-3-28,52.9,37.1,21.3,29.0,22.8,18.0,90,61,26,22.65,22.58,5,1,21,0.00
2013-3-29,51.4,40.4,25.5,32.4,25.7,22.2,89,58,36,22.66,22.59,13,4,21,0.00
2013-3-30,52.2,41.9,28.2,33.2,24.1,15.8,88,52,25,22.67,22.58,10,4,21,0.01
2013-3-31,58.0,41.4,21.5,25.0,14.9,-5.9,93,42,7,22.67,22.53,10,3,21,0.00
2013-4-1,45.6,33.6,20.9,31.9,24.7,16.6,93,72,46,22.62,22.51,6,1,21,0.01
2013-4-2,35.5,31.5,29.8,33.1,29.7,28.0,94,93,89,22.59,22.52,5,1,21,0.12
2013-4-3,55.0,36.8,16.7,35.8,24.7,14.5,95,67,22,22.66,22.56,6,1,21,0.31
2013-4-4,57.3,47.3,37.0,27.6,23.4,17.2,61,40,24,22.66,22.57,9,4,21,0.00
2013-4-5,60.0,48.9,38.3,34.0,22.3,17.6,81,37,23,22.56,22.35,13,6,29,0.03
2013-4-6,53.8,43.2,35.7,29.5,20.5,15.4,68,41,23,22.49,22.43,13,5,21,0.00
2013-4-7,49.6,40.3,33.8,33.6,25.9,20.1,90,58,34,22.45,22.31,13,5,22,0.04
2013-4-8,54.3,38.2,27.0,32.1,25.9,20.2,92,65,29,22.33,22.13,7,2,21,0.02
2013-4-9,27.0,15.2,6.4,23.7,9.2,1.5,90,77,59,22.49,22.26,5,2,21,0.00
2013-4-10,28.9,16.7,-1.8,20.6,8.0,-5.5,86,70,37,22.47,22.33,11,4,21,0.00
2013-4-11,46.5,37.0,28.8,26.0,19.4,10.2,62,49,38,22.41,22.27,14,5,25,0.07
2013-4-12,48.8,35.6,24.5,28.1,21.6,10.5,91,63,22,22.47,22.39,13,3,32,0.00
2013-4-13,52.6,40.4,21.7,32.8,21.8,12.1,93,54,22,22.44,22.11,17,6,28,0.13
2013-4-14,32.8,28.3,24.1,29.5,10.2,-3.0,92,49,27,22.29,22.15,13,5,21,0.00
2013-4-15,27.5,21.8,15.8,21.4,17.8,11.3,90,85,54,22.43,22.25,7,0,21,0.00
2013-4-16,28.7,21.5,14.8,21.8,17.7,11.6,91,85,73,22.43,22.33,0,0,21,0.00
2013-4-17,23.7,18.2,5.5,18.4,14.5,2.2,92,85,75,22.51,22.36,0,0,21,0.00
2013-4-18,27.4,14.1,-4.4,6.9,1.4,-8.3,87,60,37,22.57,22.46,13,5,24,0.00
2013-4-19,39.3,31.2,23.0,20.8,14.4,6.0,58,50,43,22.55,22.47,15,8,26,0.01
2013-4-20,47.0,37.5,30.0,29.1,23.4,18.5,81,57,37,22.53,22.42,11,4,21,0.00
2013-4-21,47.1,38.7,30.6,29.7,21.5,17.9,87,51,34,22.59,22.52,10,4,21,0.00
2013-4-22,42.9,27.6,14.6,31.3,21.5,11.7,92,79,45,22.65,22.46,8,2,21,0.03
2013-4-23,29.2,20.5,11.7,20.1,12.4,7.5,88,72,50,22.62,22.51,2,0,21,0.15
2013-4-24,42.6,31.5,19.3,14.3,9.9,5.4,63,42,22,22.68,22.55,9,4,21,0.03
2013-4-25,58.7,42.0,22.4,24.7,12.7,3.8,73,34,16,22.65,22.48,9,3,21,0.00
2013-4-26,58.2,40.8,24.4,25.4,19.4,11.5,80,49,18,22.76,22.58,5,2,21,0.00
2013-4-27,61.6,46.8,26.7,22.8,16.8,9.3,77,36,13,22.75,22.64,10,3,21,0.00
2013-4-28,66.6,55.2,47.5,34.8,21.2,14.7,61,28,16,22.63,22.49,12,5,21,0.00
2013-4-29,67.9,56.2,45.1,34.9,23.5,16.1,64,31,15,22.55,22.30,14,6,26,0.00
2013-4-30,56.2,45.9,31.9,37.3,30.1,21.6,95,59,26,22.50,22.30,10,4,21,0.19
2013-5-1,32.0,24.2,11.7,30.7,21.3,8.7,95,89,73,22.90,22.50,0,0,21,0.00
2013-5-2,34.3,23.7,4.0,28.1,16.1,0.7,91,74,51,22.98,22.81,5,1,21,0.48
2013-5-3,52.7,40.7,28.2,29.4,20.1,11.3,75,46,22,22.81,22.61,6,2,21,0.12
2013-5-4,48.1,36.8,25.4,28.8,25.0,22.5,90,65,38,22.65,22.63,5,2,21,0.00
2013-5-5,51.0,43.1,35.6,34.7,29.8,21.4,92,63,39,22.66,22.59,6,2,21,0.02
2013-5-6,55.9,44.0,29.1,37.0,31.7,27.8,96,66,37,22.63,22.52,6,2,21,0.01
2013-5-7,61.6,47.3,32.8,37.3,30.9,26.0,86,55,29,22.58,22.49,11,3,21,0.00
2013-5-8,54.7,39.3,30.9,37.9,33.1,28.3,95,80,42,22.65,22.55,6,1,21,0.68
2013-5-9,47.9,37.3,30.9,40.2,34.3,29.4,96,89,63,22.73,22.64,5,0,21,0.72
2013-5-10,57.6,42.9,28.6,39.8,30.9,22.9,96,67,26,22.84,22.71,6,1,21,0.01
2013-5-11,62.0,44.8,30.3,39.3,32.5,26.2,93,65,26,22.89,22.77,10,2,21,0.01
2013-5-12,69.6,55.5,38.3,34.7,29.8,25.3,79,41,21,22.83,22.72,6,2,21,0.00
2013-5-13,75.1,63.1,46.7,38.3,32.5,27.6,66,33,18,22.79,22.69,8,3,21,0.00
2013-5-14,74.5,61.8,44.7,38.2,33.8,28.5,69,36,21,22.69,22.60,10,4,21,0.00
2013-5-15,67.1,53.7,43.0,42.3,36.9,32.0,84,55,28,22.62,22.57,7,2,21,0.00
2013-5-16,69.5,56.6,42.6,39.6,34.2,24.7,86,45,19,22.57,22.49,15,4,23,0.00
2013-5-17,73.4,58.0,37.1,40.0,26.4,14.1,83,38,12,22.54,22.46,9,3,21,0.00
2013-5-18,62.2,51.6,41.5,41.3,26.8,15.7,80,40,20,22.53,22.44,13,3,21,0.10
2013-5-19,56.7,48.3,43.1,29.9,27.2,22.7,56,44,28,22.48,22.40,11,6,22,0.00
2013-5-20,54.9,47.0,40.4,35.5,29.0,22.5,79,51,36,22.58,22.44,8,4,21,0.00
2013-5-21,59.2,47.5,38.0,29.3,23.5,16.7,59,40,25,22.58,22.50,9,4,21,0.00
2013-5-22,63.9,50.3,32.5,43.6,32.7,22.1,91,56,21,22.64,22.51,7,2,21,0.10
2013-5-23,58.4,49.0,42.3,47.2,43.4,40.7,95,82,64,22.64,22.57,6,2,21,0.02
2013-5-24,72.4,56.1,35.8,43.1,32.6,18.3,96,51,13,22.63,22.55,7,2,21,0.00
2013-5-25,74.4,57.8,35.9,38.5,25.7,7.9,88,39,8,22.62,22.55,8,2,21,0.00
2013-5-26,74.3,57.8,43.5,32.5,24.9,12.0,54,31,10,22.59,22.55,8,2,21,0.00
2013-5-27,69.3,59.2,42.8,30.7,20.8,10.3,57,24,14,22.54,22.43,10,3,21,0.00
2013-5-28,66.6,53.5,34.1,40.6,28.9,19.1,73,42,17,22.47,22.30,8,2,21,0.00
2013-5-29,56.1,46.2,40.5,40.3,32.7,26.6,91,61,37,22.36,22.26,15,5,23,0.16
2013-5-30,54.0,46.3,40.8,30.5,24.8,18.2,66,44,25,22.46,22.30,19,10,32,0.00
2013-5-31,56.8,48.8,40.4,20.9,16.8,10.7,42,28,19,22.59,22.43,17,8,33,0.00
2013-6-1,56.9,49.7,40.1,36.4,29.7,17.0,64,47,28,22.76,22.59,10,4,21,0.00
2013-6-2,74.0,53.4,28.4,37.2,30.4,20.6,88,48,15,22.74,22.51,8,2,21,0.00
2013-6-3,74.8,58.4,39.1,37.7,27.1,15.3,65,34,15,22.58,22.46,11,4,21,0.00
2013-6-4,65.8,52.2,38.6,45.6,35.5,15.3,81,54,21,22.73,22.57,7,2,21,0.00
2013-6-5,59.1,48.1,40.1,43.5,39.6,36.5,88,73,48,22.72,22.64,7,3,21,0.00
2013-6-6,66.6,50.9,32.8,41.9,35.5,31.5,95,62,29,22.74,22.65,5,1,21,0.00
2013-6-7,72.4,56.2,37.1,42.1,36.6,30.3,88,53,25,22.73,22.49,13,2,21,0.00
2013-6-8,71.0,62.5,45.3,46.9,36.9,27.6,70,40,21,22.66,22.43,12,4,29,0.00
2013-6-9,82.4,62.3,35.9,40.1,32.1,26.7,90,41,14,22.65,22.60,9,2,21,0.00
2013-6-10,85.1,71.8,55.1,39.0,31.6,25.0,41,24,12,22.65,22.58,10,3,21,0.00
2013-6-11,81.4,68.5,47.6,36.1,22.8,12.8,50,22,8,22.62,22.55,12,4,21,0.00
2013-6-12,81.0,68.3,47.8,46.9,29.0,17.5,61,25,11,22.75,22.63,12,3,25,0.00
2013-6-13,83.4,65.1,46.7,49.7,38.9,24.3,83,47,12,22.75,22.58,11,2,21,0.00
2013-6-14,81.2,64.7,46.5,42.9,33.3,8.2,68,38,8,22.64,22.57,8,3,21,0.00
2013-6-15,71.3,58.7,41.3,46.9,43.1,37.4,87,58,38,22.70,22.62,8,2,21,0.00
2013-6-16,74.2,58.3,44.9,45.2,36.8,23.5,87,50,15,22.80,22.67,10,2,21,0.00
2013-6-17,71.7,58.3,40.9,49.5,38.9,30.7,81,51,25,22.75,22.67,9,2,21,0.01
2013-6-18,76.0,59.3,41.6,48.7,41.4,31.8,91,57,21,22.73,22.56,6,2,21,0.00
2013-6-19,81.6,64.6,40.5,45.0,26.3,-0.2,92,38,5,22.62,22.44,10,3,21,0.00
2013-6-20,76.7,62.5,43.1,35.3,24.4,13.1,43,24,11,22.60,22.49,8,3,21,0.00
2013-6-21,81.9,64.4,41.1,41.2,24.9,9.3,70,31,7,22.59,22.52,10,3,21,0.00
2013-6-22,77.7,61.3,41.6,42.7,31.9,18.6,79,39,11,22.60,22.48,12,3,21,0.00
2013-6-23,72.8,59.1,39.4,46.5,36.4,22.8,60,43,30,22.62,22.52,8,2,21,0.00
2013-6-24,78.5,63.4,40.7,42.3,26.7,11.0,81,34,8,22.57,22.48,10,4,21,0.00
2013-6-25,74.7,66.2,52.8,37.4,31.0,23.0,49,27,20,22.69,22.51,9,4,21,0.00
2013-6-26,85.3,66.9,42.8,42.8,34.3,30.5,67,34,16,22.78,22.69,8,2,21,0.00
2013-6-27,88.1,71.0,50.9,42.1,33.5,20.3,51,29,9,22.89,22.77,8,2,21,0.00
2013-6-28,85.7,69.1,48.4,56.1,45.1,30.8,75,46,14,22.88,22.80,7,2,21,0.00
2013-6-29,77.3,62.3,47.2,57.0,48.0,41.6,86,62,29,22.86,22.76,6,1,21,0.07
2013-6-30,73.3,59.1,51.5,56.6,51.1,47.5,94,76,42,22.82,22.75,6,1,21,0.90
2013-7-1,70.3,58.0,43.1,54.9,48.2,41.8,96,73,41,22.88,22.80,5,2,21,0.43
2013-7-2,72.7,58.6,43.1,53.1,46.0,38.7,96,67,32,22.85,22.75,6,1,21,0.01
2013-7-3,79.3,59.8,41.1,52.7,44.8,38.0,95,64,24,22.76,22.61,7,1,21,0.21
2013-7-4,79.1,66.3,53.4,48.5,43.2,36.8,74,45,24,22.67,22.61,6,2,21,0.00
2013-7-5,77.1,63.8,50.6,52.6,47.7,43.7,86,58,33,22.63,22.56,13,3,21,0.00
2013-7-6,78.8,62.5,51.3,51.5,47.9,43.5,92,63,30,22.68,22.58,14,3,21,0.10
2013-7-7,79.7,64.7,48.5,55.1,48.3,39.2,96,60,24,22.74,22.66,11,3,21,0.20
2013-7-8,79.2,68.5,56.0,49.0,42.7,36.0,69,40,23,22.79,22.69,12,4,22,0.00
2013-7-9,82.0,68.3,50.6,46.9,38.5,27.1,69,38,14,22.85,22.77,9,2,21,0.00
2013-7-10,81.0,65.5,46.2,53.5,45.0,39.7,81,50,29,22.85,22.69,7,2,21,0.00
2013-7-11,86.3,70.0,49.1,52.4,45.0,37.4,86,47,19,22.76,22.58,7,2,21,0.00
2013-7-12,80.9,68.5,59.2,58.3,48.4,43.0,87,51,31,22.72,22.63,9,3,21,0.06
2013-7-13,80.6,63.5,52.4,57.5,51.6,45.2,95,69,31,22.79,22.71,6,1,21,0.39
2013-7-14,71.7,58.5,47.7,57.6,53.0,46.6,97,83,54,22.83,22.75,4,1,21,0.10
2013-7-15,73.2,59.8,54.0,59.3,54.4,50.9,96,83,56,22.81,22.72,6,1,21,0.03
2013-7-16,74.7,61.1,44.5,51.6,46.9,40.1,96,64,29,22.81,22.73,5,2,21,0.00
2013-7-17,80.1,63.7,44.8,53.2,47.9,42.6,93,61,35,22.82,22.75,5,2,21,0.00
2013-7-18,82.2,64.1,55.2,55.8,50.7,44.5,95,67,29,22.84,22.75,8,1,21,0.31
2013-7-19,73.3,62.2,50.1,56.9,53.5,47.8,97,75,46,22.81,22.72,5,2,21,0.00
2013-7-20,82.4,61.2,45.1,55.8,47.9,39.7,94,67,23,22.72,22.65,6,1,21,0.00
2013-7-21,84.5,65.8,43.1,48.2,39.8,20.1,94,49,11,22.67,22.58,5,2,21,0.00
2013-7-22,86.5,69.4,51.0,45.5,27.3,5.3,62,27,5,22.68,22.62,9,2,21,0.00
2013-7-23,86.3,65.9,46.9,53.0,36.5,6.0,74,39,5,22.79,22.67,7,2,21,0.00
2013-7-24,76.2,60.9,50.2,57.8,51.5,45.0,94,73,45,22.80,22.71,10,2,21,0.26
2013-7-25,71.5,58.9,52.7,53.5,49.3,42.9,92,73,38,22.85,22.71,5,1,21,0.13
2013-7-26,73.9,61.1,44.3,54.2,45.8,41.9,92,61,33,22.86,22.77,5,1,21,0.00
2013-7-27,77.2,59.4,43.8,55.1,47.1,38.9,94,68,27,22.79,22.67,8,2,21,0.30
2013-7-28,69.9,57.1,51.0,55.9,52.2,47.9,96,85,46,22.68,22.57,7,2,21,0.04
2013-7-29,69.3,58.8,49.4,50.2,46.5,43.3,96,65,40,22.78,22.60,9,2,21,0.18
2013-7-30,79.2,63.6,47.5,50.2,45.7,35.6,91,56,21,22.85,22.78,9,3,21,0.02
2013-7-31,79.3,64.6,47.5,50.5,44.2,34.6,83,51,22,22.90,22.80,9,2,21,0.00
2013-8-1,80.4,63.8,45.5,53.6,44.0,37.5,92,54,23,22.84,22.65,10,2,21,0.00
2013-8-2,82.2,70.1,57.1,52.5,44.5,38.2,80,41,21,22.73,22.64,10,4,21,0.00
2013-8-3,80.1,63.5,49.7,55.7,47.1,34.8,86,60,21,22.84,22.72,7,2,21,0.00
2013-8-4,80.4,65.7,48.9,51.6,43.2,33.0,90,48,19,22.81,22.73,6,2,21,0.04
2013-8-5,79.3,65.2,53.9,54.3,44.2,38.4,78,48,25,22.75,22.68,8,3,21,0.04
2013-8-6,77.4,66.1,53.6,43.7,38.9,29.8,52,38,20,22.72,22.66,11,4,21,0.00
2013-8-7,66.5,56.7,46.3,47.4,41.9,35.9,90,59,41,22.72,22.65,8,1,21,0.00
2013-8-8,68.5,54.9,40.4,53.8,43.6,37.1,91,68,40,22.77,22.66,5,1,21,0.05
2013-8-9,67.9,52.1,41.5,50.4,45.0,40.2,96,79,41,22.83,22.75,5,1,21,0.24
2013-8-10,77.8,57.9,39.8,54.3,42.5,34.7,96,63,21,22.82,22.74,7,1,21,0.09
2013-8-11,67.7,57.9,47.8,50.2,45.9,42.4,93,66,42,22.82,22.76,6,1,21,0.13
2013-8-12,70.2,55.6,41.7,52.1,44.6,39.4,93,69,37,22.85,22.77,5,1,21,0.18
2013-8-13,63.8,52.4,41.4,50.5,45.0,39.8,96,77,50,22.85,22.76,9,1,21,0.16
2013-8-14,73.2,55.9,39.9,47.4,40.8,31.6,93,62,23,22.82,22.74,6,1,21,0.01
2013-8-15,79.5,59.8,41.2,45.6,36.5,23.8,81,49,14,22.82,22.73,7,2,21,0.00
2013-8-16,80.5,61.6,41.6,47.8,38.4,23.9,87,50,13,22.82,22.76,5,1,21,0.00
2013-8-17,83.2,61.6,44.0,40.6,34.0,19.9,80,44,10,22.82,22.72,5,1,21,0.00
2013-8-18,83.2,68.7,51.6,43.1,37.3,33.1,54,33,18,22.80,22.72,7,3,21,0.00
2013-8-19,83.1,67.8,50.3,45.1,38.5,28.6,65,38,15,22.78,22.71,5,2,21,0.00
2013-8-20,85.1,67.4,49.3,42.9,37.3,28.6,64,37,13,22.74,22.69,8,2,21,0.00
2013-8-21,78.2,67.0,56.3,56.8,44.1,38.5,69,45,28,22.78,22.72,7,2,21,0.04
2013-8-22,74.5,58.8,47.9,57.4,50.2,43.8,93,75,46,22.84,22.76,6,1,21,0.19
2013-8-23,79.6,63.7,50.9,52.0,48.0,42.2,92,60,28,22.81,22.65,7,2,21,0.07
2013-8-24,75.3,61.6,45.3,50.6,45.9,38.3,93,62,28,22.78,22.67,9,2,21,0.07
2013-8-25,78.0,60.5,46.0,54.7,48.8,44.0,93,70,33,22.79,22.75,7,1,21,0.04
2013-8-26,81.0,65.9,49.4,55.7,50.0,45.5,92,61,32,22.81,22.75,10,3,21,0.06
2013-8-27,79.2,62.0,49.1,56.6,51.1,46.6,93,71,34,22.79,22.74,7,1,21,0.19
2013-8-28,80.5,63.2,47.9,56.9,48.1,40.1,97,64,33,22.81,22.75,7,1,21,0.00
2013-8-29,84.2,62.7,49.6,53.4,46.6,42.0,95,61,25,22.87,22.78,11,1,21,0.35
2013-8-30,78.6,61.8,47.5,58.4,50.0,44.8,96,70,31,22.84,22.76,6,1,21,0.17
2013-8-31,79.6,62.8,49.2,57.0,47.2,39.2,88,59,25,22.79,22.73,7,2,21,0.05
2013-9-1,72.3,57.3,46.3,58.4,50.8,43.8,94,80,56,22.80,22.74,5,1,21,0.07
2013-9-2,80.7,63.0,46.6,57.9,48.7,44.6,96,66,30,22.77,22.71,5,1,21,0.01
2013-9-3,84.5,68.0,52.8,54.6,48.1,39.7,89,54,22,22.81,22.73,8,2,21,0.03
2013-9-4,83.5,60.0,49.3,58.4,51.0,45.2,93,76,28,22.89,22.78,5,1,21,1.08
2013-9-5,82.8,63.3,49.1,58.7,51.2,46.0,95,69,29,22.85,22.80,5,1,21,0.00
2013-9-6,81.7,63.7,53.6,57.6,48.1,41.2,83,60,25,22.83,22.75,12,2,25,0.09
2013-9-7,80.6,64.8,48.0,51.8,46.7,42.2,88,56,28,22.79,22.72,5,1,21,0.00
2013-9-8,77.3,60.5,47.1,56.1,47.5,43.1,87,66,31,22.72,22.60,6,1,21,0.08
2013-9-9,71.7,60.0,53.1,55.1,49.9,44.0,95,71,46,22.67,22.59,7,2,21,0.39
2013-9-10,56.8,53.2,50.3,54.1,51.6,48.9,96,94,87,22.78,22.65,4,1,21,0.51
2013-9-11,56.0,53.6,51.9,54.6,52.4,50.6,97,96,93,22.81,22.75,3,1,21,2.63
2013-9-12,57.3,53.1,50.5,55.6,52.1,49.7,98,96,91,22.85,22.77,4,1,21,6.81
2013-9-13,68.1,55.8,48.5,57.5,52.5,48.0,100,90,53,22.76,22.57,2,0,21,0.58
2013-9-14,67.7,52.7,43.3,53.3,47.9,43.0,100,86,44,22.65,22.57,3,0,21,0.10
2013-9-15,51.8,49.5,47.3,50.8,48.8,46.6,99,98,91,22.81,22.66,1,0,21,0.76
2013-9-16,69.2,53.5,45.4,55.4,47.8,44.7,99,84,43,22.78,22.66,5,1,21,0.00
2013-9-17,74.0,58.5,46.1,46.3,42.9,30.2,92,60,20,22.70,22.59,3,1,21,0.00
2013-9-19,58.3,42.8,38.8,44.0,40.0,37.5,96,90,59,22.73,22.65,2,0,21,0.10
2013-9-20,65.8,47.5,32.1,48.3,39.5,31.6,99,78,43,22.73,22.64,3,0,21,0.01
2013-9-21,74.9,59.0,39.4,44.3,36.7,30.2,96,48,22,22.66,22.50,5,1,21,0.00
2013-9-22,62.9,50.5,43.3,49.3,41.7,36.9,97,74,45,22.50,22.30,6,1,21,0.25
2013-9-23,54.3,48.1,43.1,42.8,34.0,29.0,94,59,41,22.64,22.24,8,3,21,0.13
2013-9-24,69.2,55.0,44.3,31.9,26.4,14.9,53,36,13,22.69,22.50,4,2,21,0.00
2013-9-25,74.3,61.9,47.9,34.9,24.2,14.0,49,24,14,22.50,22.23,4,1,21,0.00
2013-9-26,64.2,49.3,38.9,45.0,38.0,29.3,95,67,43,22.41,22.28,3,0,21,0.00
2013-9-27,46.0,41.3,34.6,43.9,36.5,22.2,96,84,56,22.53,22.35,5,1,21,0.13
2013-9-28,56.6,44.9,34.6,31.8,24.1,17.0,61,44,32,22.68,22.51,7,4,21,0.00
2013-9-29,65.3,54.1,46.7,28.7,22.1,17.5,45,29,21,22.67,22.55,6,3,21,0.00
2013-10-5,48.4,44.0,38.9,16.8,10.6,3.9,36,25,21,22.70,22.63,5,4,21,0.00
2013-10-6,65.6,51.1,40.4,34.3,24.9,5.6,55,37,23,22.77,22.69,6,1,21,0.00
2013-10-7,70.4,57.9,45.9,26.6,18.7,12.1,37,23,11,22.74,22.56,5,2,21,0.00
2013-10-8,70.6,56.4,40.3,31.4,22.9,15.2,68,30,15,22.55,22.42,6,2,21,0.00
2013-10-9,62.3,49.2,38.4,39.2,33.3,25.3,86,56,32,22.54,22.46,2,1,21,0.00
2013-10-10,51.3,42.3,35.1,43.3,35.1,26.0,95,77,52,22.52,22.19,6,1,21,0.02
2013-10-11,47.0,41.6,37.9,30.2,27.5,24.0,68,57,46,22.58,22.17,7,4,21,0.00
2013-10-12,53.2,38.2,27.2,34.5,29.6,23.0,97,75,32,22.66,22.58,3,0,21,0.00
2013-10-13,59.9,39.8,26.6,41.8,31.8,25.4,97,77,31,22.66,22.48,4,0,21,0.01
2013-10-14,49.2,40.1,32.8,35.2,29.6,23.7,92,67,45,22.62,22.40,5,1,21,0.01
2013-10-15,34.3,30.2,27.1,29.9,27.0,23.7,93,88,71,22.70,22.63,2,0,21,0.00
2013-10-16,46.9,34.6,21.1,23.8,19.5,10.4,95,58,30,22.64,22.53,4,1,21,0.01
2013-10-17,46.5,36.6,29.8,29.2,22.3,16.0,95,59,33,22.59,22.52,4,1,21,0.00
2013-10-18,29.7,24.9,19.4,28.4,23.2,16.9,95,93,79,22.63,22.53,2,0,21,0.00
2013-10-20,25.5,24.9,24.3,24.0,23.5,22.8,95,94,94,22.61,22.60,0,0,21,0.00
2013-10-21,41.7,24.6,19.7,23.7,20.5,17.8,95,86,48,22.69,22.60,1,0,21,0.05
2013-10-22,51.6,44.2,41.7,27.9,23.6,22.5,48,44,39,22.70,22.67,3,1,21,0.00
2013-10-23,46.7,44.3,39.3,31.8,31.5,30.7,71,61,56,22.72,22.69,0,0,21,0.00
2013-10-24,41.8,36.1,31.1,27.3,26.7,26.0,82,69,56,22.74,22.73,0,0,21,0.00
2013-10-25,42.8,36.5,32.8,28.6,26.4,24.9,73,67,57,22.78,22.74,0,0,21,0.00
2013-10-26,43.6,28.3,24.5,32.6,23.5,21.0,88,82,65,22.82,22.74,0,0,21,0.00
2013-10-27,43.5,37.9,35.1,23.5,23.1,22.7,61,55,44,22.50,22.50,0,0,21,0.00
2013-10-28,31.0,28.1,26.1,26.0,24.5,22.8,95,87,75,22.51,22.49,1,0,21,0.00
2013-10-29,34.9,27.5,24.0,33.2,25.7,22.0,95,93,83,22.48,22.41,2,0,21,0.03
2013-10-30,36.0,33.1,31.5,29.8,20.6,16.8,93,60,54,22.41,22.37,5,2,21,0.09
2013-10-31,34.8,31.5,30.6,24.9,17.3,13.5,69,56,46,22.45,22.38,6,3,21,0.00
2013-11-1,43.0,36.8,33.1,27.0,20.4,14.4,77,52,36,22.67,22.45,3,1,21,0.00
2013-11-2,56.1,45.3,34.0,17.7,9.9,-9.5,49,27,7,22.67,22.36,6,2,21,0.00
2013-11-3,53.3,43.0,29.0,25.2,19.2,10.3,76,40,21,22.36,22.24,7,2,21,0.00
2013-11-4,36.3,29.7,23.4,20.8,17.0,10.6,74,59,48,22.45,22.35,5,1,21,0.00
2013-11-5,33.3,28.2,21.5,17.8,7.4,-2.1,84,42,32,22.58,22.39,4,2,21,0.00
2013-11-7,53.6,47.0,40.1,21.6,20.0,18.3,43,34,26,22.80,22.55,6,2,21,0.00
2013-11-8,54.8,46.6,42.2,21.6,17.4,12.2,39,31,24,22.61,22.38,12,4,21,0.00
2013-11-9,57.5,43.5,29.2,24.3,20.7,17.8,78,42,26,22.74,22.59,4,2,21,0.00
2013-11-10,58.8,46.6,30.3,24.0,19.3,16.0,76,35,22,22.75,22.74,4,1,21,0.00
2013-11-11,60.1,43.6,27.5,27.9,21.5,16.1,92,48,18,22.98,22.71,6,2,21,0.00
2013-11-12,56.4,38.1,22.0,28.3,22.6,9.3,92,59,21,22.98,22.84,3,0,21,0.00
2013-11-13,56.9,49.0,42.5,20.8,12.5,5.4,41,23,15,22.84,22.59,4,2,21,0.00
2013-11-14,50.6,41.8,32.7,25.3,17.5,10.9,58,39,23,22.60,22.36,5,1,21,0.00
2013-11-15,49.7,39.9,32.4,30.5,18.3,6.3,88,45,23,22.33,22.11,6,2,21,0.00
2013-11-16,40.9,32.9,26.5,28.0,21.4,12.8,93,64,40,22.12,21.98,10,4,23,0.00
2013-11-17,38.8,32.7,25.7,23.2,17.7,13.0,90,54,41,22.55,22.11,14,5,21,0.00
2013-11-18,54.9,38.0,25.9,20.1,14.7,7.6,54,40,17,22.70,22.55,8,2,21,0.00
2013-11-19,48.6,42.0,36.2,28.2,19.5,5.0,65,42,20,22.57,22.36,7,2,21,0.00
2013-11-20,47.8,39.4,32.5,28.2,22.9,19.0,75,52,33,22.48,22.38,6,2,21,0.00
2013-11-21,32.8,13.8,6.4,26.1,9.8,3.3,89,84,74,22.83,22.47,2,1,21,0.00
2013-11-22,31.2,18.7,7.4,24.3,14.0,4.6,91,82,62,22.91,22.81,0,0,21,0.00
2013-11-23,29.9,20.4,12.5,22.6,16.7,9.9,94,86,71,22.90,22.69,0,0,21,0.00
2013-11-24,41.0,26.8,13.3,34.6,22.2,11.2,96,84,51,22.68,22.46,0,0,21,0.10
2013-11-25,36.8,29.4,18.7,22.8,19.8,14.4,86,68,52,22.74,22.54,2,0,21,0.00
2013-11-26,45.4,31.0,15.4,21.2,16.3,12.6,91,58,30,22.79,22.71,2,0,21,0.04
2013-11-27,51.4,40.1,25.9,21.2,17.3,12.4,74,41,27,22.70,22.60,3,1,21,0.05
2013-11-28,50.8,29.5,18.3,25.7,20.3,15.1,89,71,32,22.68,22.60,2,0,21,0.00
2013-11-29,47.1,39.8,27.8,21.5,18.8,15.4,75,43,34,22.69,22.63,6,2,21,0.00
2013-11-30,46.6,38.5,34.5,19.3,16.3,11.7,49,41,30,22.70,22.64,5,2,21,0.00
2013-12-1,42.5,36.2,31.7,27.2,20.0,15.0,73,52,41,22.66,22.40,12,5,21,0.00
2013-12-2,41.3,37.1,34.3,27.3,23.8,20.9,72,59,49,22.44,22.23,11,6,21,0.00
2013-12-3,37.7,27.5,4.6,30.2,18.3,1.1,88,70,50,22.23,22.08,3,1,21,0.00
2013-12-4,6.1,0.7,-10.8,1.5,-3.4,-14.6,87,83,76,22.32,22.13,0,0,21,0.00
2013-12-5,14.1,-2.5,-14.1,3.2,-8.0,-17.9,91,77,54,22.37,22.24,0,0,21,0.00
2013-12-6,13.2,-2.3,-12.5,0.9,-8.3,-16.7,87,76,52,22.45,22.36,3,0,21,0.00
2013-12-7,21.1,7.1,-6.3,9.7,0.4,-10.1,92,74,56,22.40,22.11,3,0,21,0.00
2013-12-8,19.3,11.2,-1.6,6.4,-0.6,-8.9,91,60,40,22.32,22.08,5,1,21,0.00
2013-12-9,13.9,7.8,-2.3,-0.6,-7.2,-11.9,80,50,36,22.52,22.32,12,5,21,0.00
2013-12-10,26.6,21.2,13.0,11.0,6.6,-1.4,60,53,47,22.58,22.42,12,7,21,0.00
2013-12-11,36.4,28.6,20.7,8.0,4.8,-1.8,53,37,21,22.73,22.58,7,3,21,0.00
2013-12-12,50.7,41.3,35.1,10.7,3.7,-2.6,27,21,14,22.73,22.49,6,2,21,0.00
2013-12-13,41.7,33.9,24.8,14.1,10.1,4.5,52,37,25,22.57,22.39,4,2,21,0.00
2013-12-14,34.9,28.7,23.9,14.7,9.5,5.8,54,44,33,22.67,22.57,7,3,21,0.00
2013-12-15,42.4,35.5,28.5,18.0,15.3,13.1,56,44,35,22.66,22.60,11,6,21,0.00
2013-12-16,46.1,39.8,36.1,19.5,14.9,8.5,46,36,27,22.72,22.61,9,6,21,0.00
2013-12-17,52.8,43.5,37.0,16.6,13.2,9.9,37,29,21,22.79,22.64,8,2,21,0.00
2013-12-18,52.3,44.9,40.3,18.0,11.6,7.8,39,26,19,22.63,22.34,8,4,21,0.00
2013-12-19,48.5,37.2,16.4,26.1,18.7,13.5,90,51,26,22.33,22.14,8,2,21,0.00
2013-12-20,35.1,23.8,12.8,21.3,13.1,6.8,93,66,44,22.27,22.17,6,2,21,0.00
2013-12-21,29.8,24.0,15.6,17.7,10.4,6.0,89,58,40,22.32,22.08,11,2,21,0.00
2013-12-22,25.8,20.6,7.4,14.8,7.4,1.8,88,57,42,22.52,22.33,12,6,25,0.00
2013-12-23,33.2,25.1,9.6,19.4,13.5,6.5,88,63,41,22.62,22.53,20,9,33,0.00
2013-12-24,34.1,28.4,21.5,27.0,13.8,2.3,88,55,40,22.68,22.53,20,7,29,0.00
2013-12-25,36.7,27.6,20.5,7.2,3.8,0.5,47,36,27,22.73,22.65,13,7,26,0.00
2013-12-26,40.6,35.7,30.7,14.0,7.2,-3.5,39,30,20,22.73,22.66,12,6,21,0.00
2013-12-27,52.5,37.9,26.3,21.0,17.3,12.6,68,45,27,22.74,22.58,7,2,21,0.00
2013-12-28,44.1,34.9,16.5,20.3,17.4,12.2,87,52,31,22.57,22.41,10,4,21,0.00
2013-12-29,30.2,20.9,5.5,17.3,7.1,-0.3,91,60,30,22.58,22.38,16,5,24,0.01
2013-12-30,34.1,29.8,24.5,13.8,10.4,7.5,54,44,35,22.62,22.41,15,8,29,0.01
2013-12-31,38.4,34.0,30.6,20.5,18.0,12.7,62,52,43,22.55,22.43,18,9,30,0.00
2014-1-1,33.2,25.8,15.4,24.5,13.9,6.5,84,61,41,22.65,22.40,9,4,22,0.00
2014-1-2,43.1,34.6,23.4,14.9,8.6,1.4,49,34,22,22.65,22.49,18,8,28,0.00